Weather at Washington Hospital Parking Structure Heliport

Public forecast

Using degrees Fahrenheit for public forecast. Weather courtesy of forecast.io.

Closest aviation weather report (METAR) to Washington Hospital Parking Structure Heliport

Closest report is Palo Alto Airport of Santa Clara County, 8.7 nm (16.1 km) SW.

2024/05/30 21:47 (retrieved 1 hour ago)

KPAO 302147Z 33012KT 10SM SKC 25/14 A2993

Closest aviation forecast (TAF) to Washington Hospital Parking Structure Heliport

Closest forecast is Livermore Municipal Airport, 11.1 nm (20.6 km) NE.

2024/05/30 18:22 (retrieved 4 hours ago)

TAF KLVK 301720Z 3018/3118 VRB05KT P6SM SKC FM302100 28012KT P6SM SKC FM310400 VRB03KT P6SM SKC